VTSE/CJM METAR and TAF weather

Enter ICAO airport designator
Station Type Date Time Source
VTSE METAR 2020/07/15 02:00 UTC NOAA

VTSE 150200Z 25007KT 200V280 9999 SCT020 BKN100 28/25 Q1009 NOSIG


Station Type Date Time Source
VTSE Decoded METAR 2020/07/15 02:00 UTC NOAA

Station name not available
Jul 14, 2020 - 10:00 PM EDT / 2020.07.15 0200 UTC
Wind: from the WSW (250 degrees) at 8 MPH (7 KT) (direction variable):0
Visibility: greater than 7 mile(s):0
Sky conditions: mostly cloudy
Temperature: 82 F (28 C)
Dew Point: 77 F (25 C)
Relative Humidity: 83%
Pressure (altimeter): 29.80 in. Hg (1009 hPa)
ob: VTSE 150200Z 25007KT 200V280 9999 SCT020 BKN100 28/25 Q1009 NOSIG
cycle: 2

Station Type Date Time Source
VTSE TAF 2020/07/14 18:00 UTC NOAA

TAF VTSE 141700Z 1418/1518 24005KT 8000 FEW020
TEMPO 1506/1512 27010G20KT 5000 TSRA FEW016CB SCT018 BKN100

Example: see airport list